sensor_id;sensor_type;location;lat;lon;timestamp;P1;durP1;ratioP1;P2;durP2;ratioP2
3924;SDS011;1977;52.274;10.518;2023-07-16T00:00:33;3.73;;;3.47;;
3924;SDS011;1977;52.274;10.518;2023-07-16T00:03:00;4.40;;;4.00;;
3924;SDS011;1977;52.274;10.518;2023-07-16T00:05:27;4.80;;;4.40;;
3924;SDS011;1977;52.274;10.518;2023-07-16T00:07:54;4.67;;;4.37;;
3924;SDS011;1977;52.274;10.518;2023-07-16T00:10:21;4.20;;;3.93;;
3924;SDS011;1977;52.274;10.518;2023-07-16T00:12:48;3.83;;;3.53;;
3924;SDS011;1977;52.274;10.518;2023-07-16T00:15:14;4.20;;;3.90;;
3924;SDS011;1977;52.274;10.518;2023-07-16T00:17:43;4.67;;;4.20;;
3924;SDS011;1977;52.274;10.518;2023-07-16T00:20:09;3.80;;;3.60;;
3924;SDS011;1977;52.274;10.518;2023-07-16T00:22:37;4.27;;;4.07;;
3924;SDS011;1977;52.274;10.518;2023-07-16T00:25:05;5.60;;;5.10;;
3924;SDS011;1977;52.274;10.518;2023-07-16T00:27:32;13.63;;;12.33;;
3924;SDS011;1977;52.274;10.518;2023-07-16T00:29:59;14.37;;;12.83;;
3924;SDS011;1977;52.274;10.518;2023-07-16T00:32:26;12.50;;;11.30;;
3924;SDS011;1977;52.274;10.518;2023-07-16T00:34:54;10.63;;;9.63;;
3924;SDS011;1977;52.274;10.518;2023-07-16T00:37:21;9.47;;;8.63;;
3924;SDS011;1977;52.274;10.518;2023-07-16T00:39:47;8.03;;;7.37;;
3924;SDS011;1977;52.274;10.518;2023-07-16T00:42:14;8.17;;;7.10;;
3924;SDS011;1977;52.274;10.518;2023-07-16T00:44:41;6.80;;;6.30;;
3924;SDS011;1977;52.274;10.518;2023-07-16T00:47:08;6.53;;;5.73;;
3924;SDS011;1977;52.274;10.518;2023-07-16T00:49:35;5.80;;;5.30;;
3924;SDS011;1977;52.274;10.518;2023-07-16T00:52:03;6.67;;;6.17;;
3924;SDS011;1977;52.274;10.518;2023-07-16T00:54:31;9.27;;;7.47;;
3924;SDS011;1977;52.274;10.518;2023-07-16T00:56:58;10.47;;;9.33;;
3924;SDS011;1977;52.274;10.518;2023-07-16T00:59:25;9.20;;;7.87;;
3924;SDS011;1977;52.274;10.518;2023-07-16T01:01:52;14.13;;;8.77;;
3924;SDS011;1977;52.274;10.518;2023-07-16T01:04:18;8.20;;;7.40;;
3924;SDS011;1977;52.274;10.518;2023-07-16T01:06:46;7.87;;;6.30;;
3924;SDS011;1977;52.274;10.518;2023-07-16T01:09:19;6.60;;;5.90;;
3924;SDS011;1977;52.274;10.518;2023-07-16T01:11:47;7.00;;;5.53;;
3924;SDS011;1977;52.274;10.518;2023-07-16T01:14:16;5.83;;;5.33;;
3924;SDS011;1977;52.274;10.518;2023-07-16T01:16:43;5.23;;;4.67;;
3924;SDS011;1977;52.274;10.518;2023-07-16T01:19:10;4.40;;;4.10;;
3924;SDS011;1977;52.274;10.518;2023-07-16T01:21:39;4.83;;;4.50;;
3924;SDS011;1977;52.274;10.518;2023-07-16T01:24:17;4.93;;;4.60;;
3924;SDS011;1977;52.274;10.518;2023-07-16T01:27:04;4.23;;;4.03;;
3924;SDS011;1977;52.274;10.518;2023-07-16T01:29:50;4.53;;;4.30;;
3924;SDS011;1977;52.274;10.518;2023-07-16T01:32:20;4.80;;;4.50;;
3924;SDS011;1977;52.274;10.518;2023-07-16T01:34:47;4.47;;;4.10;;
3924;SDS011;1977;52.274;10.518;2023-07-16T01:37:17;4.40;;;4.13;;
3924;SDS011;1977;52.274;10.518;2023-07-16T01:39:43;4.50;;;4.23;;
3924;SDS011;1977;52.274;10.518;2023-07-16T01:42:10;4.33;;;4.13;;
3924;SDS011;1977;52.274;10.518;2023-07-16T01:44:37;4.73;;;4.37;;
3924;SDS011;1977;52.274;10.518;2023-07-16T01:47:08;4.17;;;3.93;;
3924;SDS011;1977;52.274;10.518;2023-07-16T01:49:36;4.17;;;3.87;;
3924;SDS011;1977;52.274;10.518;2023-07-16T01:52:05;4.10;;;3.90;;
3924;SDS011;1977;52.274;10.518;2023-07-16T01:54:32;4.53;;;4.23;;
3924;SDS011;1977;52.274;10.518;2023-07-16T01:56:59;4.77;;;4.30;;
3924;SDS011;1977;52.274;10.518;2023-07-16T01:59:26;4.00;;;3.70;;
3924;SDS011;1977;52.274;10.518;2023-07-16T02:01:53;4.67;;;4.40;;
3924;SDS011;1977;52.274;10.518;2023-07-16T02:04:21;5.10;;;4.70;;
3924;SDS011;1977;52.274;10.518;2023-07-16T02:06:48;4.20;;;3.93;;
3924;SDS011;1977;52.274;10.518;2023-07-16T02:09:14;5.07;;;4.63;;
3924;SDS011;1977;52.274;10.518;2023-07-16T02:11:41;5.53;;;4.90;;
3924;SDS011;1977;52.274;10.518;2023-07-16T02:14:08;5.33;;;4.93;;
3924;SDS011;1977;52.274;10.518;2023-07-16T02:16:35;4.73;;;4.43;;
3924;SDS011;1977;52.274;10.518;2023-07-16T02:19:02;4.80;;;4.50;;
3924;SDS011;1977;52.274;10.518;2023-07-16T02:21:30;4.80;;;4.50;;
3924;SDS011;1977;52.274;10.518;2023-07-16T02:23:56;4.90;;;4.50;;
3924;SDS011;1977;52.274;10.518;2023-07-16T02:26:23;4.87;;;4.50;;
3924;SDS011;1977;52.274;10.518;2023-07-16T02:28:50;4.50;;;4.20;;
3924;SDS011;1977;52.274;10.518;2023-07-16T02:31:17;4.30;;;4.00;;
3924;SDS011;1977;52.274;10.518;2023-07-16T02:33:44;5.33;;;4.30;;
3924;SDS011;1977;52.274;10.518;2023-07-16T02:36:10;4.43;;;4.13;;
3924;SDS011;1977;52.274;10.518;2023-07-16T02:38:38;4.40;;;4.00;;
3924;SDS011;1977;52.274;10.518;2023-07-16T02:41:05;3.93;;;3.73;;
3924;SDS011;1977;52.274;10.518;2023-07-16T02:43:32;3.63;;;3.33;;
3924;SDS011;1977;52.274;10.518;2023-07-16T02:45:58;3.53;;;3.30;;
3924;SDS011;1977;52.274;10.518;2023-07-16T02:48:25;4.87;;;3.07;;
3924;SDS011;1977;52.274;10.518;2023-07-16T02:50:52;3.40;;;3.20;;
3924;SDS011;1977;52.274;10.518;2023-07-16T02:53:19;4.33;;;3.57;;
3924;SDS011;1977;52.274;10.518;2023-07-16T02:55:47;4.80;;;3.67;;
3924;SDS011;1977;52.274;10.518;2023-07-16T02:58:14;4.07;;;3.77;;
3924;SDS011;1977;52.274;10.518;2023-07-16T03:00:40;4.27;;;3.57;;
3924;SDS011;1977;52.274;10.518;2023-07-16T03:03:07;3.73;;;3.47;;
3924;SDS011;1977;52.274;10.518;2023-07-16T03:05:34;3.70;;;3.40;;
3924;SDS011;1977;52.274;10.518;2023-07-16T03:08:00;3.83;;;3.53;;
3924;SDS011;1977;52.274;10.518;2023-07-16T03:10:27;4.13;;;3.60;;
3924;SDS011;1977;52.274;10.518;2023-07-16T03:12:55;3.63;;;3.20;;
3924;SDS011;1977;52.274;10.518;2023-07-16T03:15:22;3.60;;;3.40;;
3924;SDS011;1977;52.274;10.518;2023-07-16T03:17:49;4.27;;;3.10;;
3924;SDS011;1977;52.274;10.518;2023-07-16T03:20:16;3.73;;;3.53;;
3924;SDS011;1977;52.274;10.518;2023-07-16T03:22:42;4.80;;;3.47;;
3924;SDS011;1977;52.274;10.518;2023-07-16T03:25:09;3.70;;;3.40;;
3924;SDS011;1977;52.274;10.518;2023-07-16T03:27:36;5.97;;;3.47;;
3924;SDS011;1977;52.274;10.518;2023-07-16T03:30:05;3.10;;;3.00;;
3924;SDS011;1977;52.274;10.518;2023-07-16T03:32:33;4.50;;;3.03;;
3924;SDS011;1977;52.274;10.518;2023-07-16T03:34:59;3.03;;;2.83;;
3924;SDS011;1977;52.274;10.518;2023-07-16T03:37:26;5.63;;;3.63;;
3924;SDS011;1977;52.274;10.518;2023-07-16T03:39:53;3.50;;;3.13;;
3924;SDS011;1977;52.274;10.518;2023-07-16T03:42:20;4.30;;;3.47;;
3924;SDS011;1977;52.274;10.518;2023-07-16T03:44:47;3.80;;;3.50;;
3924;SDS011;1977;52.274;10.518;2023-07-16T03:47:15;3.53;;;3.23;;
3924;SDS011;1977;52.274;10.518;2023-07-16T03:49:42;3.60;;;3.30;;
3924;SDS011;1977;52.274;10.518;2023-07-16T03:52:08;3.50;;;3.20;;
3924;SDS011;1977;52.274;10.518;2023-07-16T03:54:35;3.60;;;3.30;;
3924;SDS011;1977;52.274;10.518;2023-07-16T03:57:02;3.93;;;3.30;;
3924;SDS011;1977;52.274;10.518;2023-07-16T03:59:29;3.93;;;3.30;;
3924;SDS011;1977;52.274;10.518;2023-07-16T04:01:56;3.03;;;2.73;;
3924;SDS011;1977;52.274;10.518;2023-07-16T04:04:24;3.00;;;2.80;;
3924;SDS011;1977;52.274;10.518;2023-07-16T04:06:51;3.20;;;2.90;;
3924;SDS011;1977;52.274;10.518;2023-07-16T04:09:18;3.03;;;2.80;;
3924;SDS011;1977;52.274;10.518;2023-07-16T04:11:44;2.77;;;2.60;;
3924;SDS011;1977;52.274;10.518;2023-07-16T04:14:11;3.00;;;2.90;;
3924;SDS011;1977;52.274;10.518;2023-07-16T04:16:38;3.40;;;3.20;;
3924;SDS011;1977;52.274;10.518;2023-07-16T04:19:05;3.60;;;3.27;;
3924;SDS011;1977;52.274;10.518;2023-07-16T04:21:33;3.10;;;2.90;;
3924;SDS011;1977;52.274;10.518;2023-07-16T04:24:01;3.00;;;2.80;;
3924;SDS011;1977;52.274;10.518;2023-07-16T04:26:28;3.90;;;3.33;;
3924;SDS011;1977;52.274;10.518;2023-07-16T04:28:55;3.40;;;3.20;;
3924;SDS011;1977;52.274;10.518;2023-07-16T04:31:22;3.03;;;2.90;;
3924;SDS011;1977;52.274;10.518;2023-07-16T04:33:49;3.53;;;3.23;;
3924;SDS011;1977;52.274;10.518;2023-07-16T04:36:16;3.23;;;3.07;;
3924;SDS011;1977;52.274;10.518;2023-07-16T04:38:44;2.60;;;2.50;;
3924;SDS011;1977;52.274;10.518;2023-07-16T04:41:11;2.63;;;2.53;;
3924;SDS011;1977;52.274;10.518;2023-07-16T04:43:38;2.97;;;2.80;;
3924;SDS011;1977;52.274;10.518;2023-07-16T04:46:05;4.33;;;3.20;;
3924;SDS011;1977;52.274;10.518;2023-07-16T04:48:31;3.40;;;2.60;;
3924;SDS011;1977;52.274;10.518;2023-07-16T04:50:58;3.13;;;2.93;;
3924;SDS011;1977;52.274;10.518;2023-07-16T04:53:25;2.80;;;2.60;;
3924;SDS011;1977;52.274;10.518;2023-07-16T04:55:53;2.97;;;2.70;;
3924;SDS011;1977;52.274;10.518;2023-07-16T04:58:21;2.97;;;2.67;;
3924;SDS011;1977;52.274;10.518;2023-07-16T05:00:48;3.10;;;2.77;;
3924;SDS011;1977;52.274;10.518;2023-07-16T05:03:15;3.97;;;3.00;;
3924;SDS011;1977;52.274;10.518;2023-07-16T05:05:42;4.60;;;3.37;;
3924;SDS011;1977;52.274;10.518;2023-07-16T05:08:09;2.83;;;2.63;;
3924;SDS011;1977;52.274;10.518;2023-07-16T05:10:38;2.60;;;2.50;;
3924;SDS011;1977;52.274;10.518;2023-07-16T05:13:10;2.90;;;2.80;;
3924;SDS011;1977;52.274;10.518;2023-07-16T05:15:37;3.17;;;2.73;;
3924;SDS011;1977;52.274;10.518;2023-07-16T05:18:06;2.90;;;2.80;;
3924;SDS011;1977;52.274;10.518;2023-07-16T05:20:33;3.00;;;2.70;;
3924;SDS011;1977;52.274;10.518;2023-07-16T05:23:00;2.77;;;2.57;;
3924;SDS011;1977;52.274;10.518;2023-07-16T05:25:32;2.80;;;2.60;;
3924;SDS011;1977;52.274;10.518;2023-07-16T05:27:59;2.80;;;2.67;;
3924;SDS011;1977;52.274;10.518;2023-07-16T05:30:27;3.07;;;2.60;;
3924;SDS011;1977;52.274;10.518;2023-07-16T05:32:57;3.43;;;3.17;;
3924;SDS011;1977;52.274;10.518;2023-07-16T05:35:23;3.33;;;3.03;;
3924;SDS011;1977;52.274;10.518;2023-07-16T05:37:50;5.80;;;3.10;;
3924;SDS011;1977;52.274;10.518;2023-07-16T05:40:17;3.50;;;3.30;;
3924;SDS011;1977;52.274;10.518;2023-07-16T05:42:44;2.63;;;2.50;;
3924;SDS011;1977;52.274;10.518;2023-07-16T05:45:16;2.60;;;2.40;;
3924;SDS011;1977;52.274;10.518;2023-07-16T05:47:58;3.07;;;2.30;;
3924;SDS011;1977;52.274;10.518;2023-07-16T05:50:25;2.63;;;2.43;;
3924;SDS011;1977;52.274;10.518;2023-07-16T05:52:52;2.30;;;2.20;;
3924;SDS011;1977;52.274;10.518;2023-07-16T05:55:21;2.80;;;2.60;;
3924;SDS011;1977;52.274;10.518;2023-07-16T05:57:48;2.40;;;2.30;;
3924;SDS011;1977;52.274;10.518;2023-07-16T06:00:15;2.90;;;2.70;;
3924;SDS011;1977;52.274;10.518;2023-07-16T06:02:42;2.87;;;2.67;;
3924;SDS011;1977;52.274;10.518;2023-07-16T06:05:10;3.20;;;2.90;;
3924;SDS011;1977;52.274;10.518;2023-07-16T06:07:37;2.70;;;2.50;;
3924;SDS011;1977;52.274;10.518;2023-07-16T06:10:04;2.80;;;2.60;;
3924;SDS011;1977;52.274;10.518;2023-07-16T06:12:32;2.90;;;2.70;;
3924;SDS011;1977;52.274;10.518;2023-07-16T06:14:59;2.30;;;2.20;;
3924;SDS011;1977;52.274;10.518;2023-07-16T06:17:26;2.93;;;2.37;;
3924;SDS011;1977;52.274;10.518;2023-07-16T06:19:53;2.70;;;2.50;;
3924;SDS011;1977;52.274;10.518;2023-07-16T06:22:21;3.33;;;2.97;;
3924;SDS011;1977;52.274;10.518;2023-07-16T06:24:48;3.37;;;2.50;;
3924;SDS011;1977;52.274;10.518;2023-07-16T06:27:15;2.50;;;2.40;;
3924;SDS011;1977;52.274;10.518;2023-07-16T06:29:42;5.03;;;2.80;;
3924;SDS011;1977;52.274;10.518;2023-07-16T06:32:09;2.70;;;2.50;;
3924;SDS011;1977;52.274;10.518;2023-07-16T06:34:35;2.77;;;2.67;;
3924;SDS011;1977;52.274;10.518;2023-07-16T06:37:03;3.83;;;3.63;;
3924;SDS011;1977;52.274;10.518;2023-07-16T06:39:31;3.53;;;2.33;;
3924;SDS011;1977;52.274;10.518;2023-07-16T06:41:58;3.00;;;2.90;;
3924;SDS011;1977;52.274;10.518;2023-07-16T06:44:25;4.67;;;2.90;;
3924;SDS011;1977;52.274;10.518;2023-07-16T06:46:52;2.80;;;2.53;;
3924;SDS011;1977;52.274;10.518;2023-07-16T06:49:19;2.57;;;2.43;;
3924;SDS011;1977;52.274;10.518;2023-07-16T06:51:46;2.73;;;2.57;;
3924;SDS011;1977;52.274;10.518;2023-07-16T06:54:13;8.40;;;3.00;;
3924;SDS011;1977;52.274;10.518;2023-07-16T06:56:41;4.00;;;3.10;;
3924;SDS011;1977;52.274;10.518;2023-07-16T06:59:08;3.10;;;2.40;;
3924;SDS011;1977;52.274;10.518;2023-07-16T07:01:35;2.90;;;2.70;;
3924;SDS011;1977;52.274;10.518;2023-07-16T07:04:01;3.43;;;3.20;;
3924;SDS011;1977;52.274;10.518;2023-07-16T07:06:28;3.53;;;2.67;;
3924;SDS011;1977;52.274;10.518;2023-07-16T07:08:55;2.97;;;2.53;;
3924;SDS011;1977;52.274;10.518;2023-07-16T07:11:22;3.77;;;2.90;;
3924;SDS011;1977;52.274;10.518;2023-07-16T07:13:51;4.40;;;2.53;;
3924;SDS011;1977;52.274;10.518;2023-07-16T07:16:20;4.60;;;2.90;;
3924;SDS011;1977;52.274;10.518;2023-07-16T07:18:47;2.70;;;2.60;;
3924;SDS011;1977;52.274;10.518;2023-07-16T07:21:14;2.70;;;2.60;;
3924;SDS011;1977;52.274;10.518;2023-07-16T07:23:40;2.83;;;2.67;;
3924;SDS011;1977;52.274;10.518;2023-07-16T07:26:07;3.20;;;3.00;;
3924;SDS011;1977;52.274;10.518;2023-07-16T07:28:37;2.73;;;2.63;;
3924;SDS011;1977;52.274;10.518;2023-07-16T07:31:05;4.00;;;2.57;;
3924;SDS011;1977;52.274;10.518;2023-07-16T07:33:32;3.50;;;2.80;;
3924;SDS011;1977;52.274;10.518;2023-07-16T07:36:00;2.77;;;2.53;;
3924;SDS011;1977;52.274;10.518;2023-07-16T07:38:27;2.80;;;2.60;;
3924;SDS011;1977;52.274;10.518;2023-07-16T07:40:57;4.20;;;2.40;;
3924;SDS011;1977;52.274;10.518;2023-07-16T07:43:26;7.23;;;2.33;;
3924;SDS011;1977;52.274;10.518;2023-07-16T07:45:54;2.43;;;2.20;;
3924;SDS011;1977;52.274;10.518;2023-07-16T07:48:22;2.60;;;2.47;;
3924;SDS011;1977;52.274;10.518;2023-07-16T07:50:50;2.47;;;2.27;;
3924;SDS011;1977;52.274;10.518;2023-07-16T07:53:16;2.57;;;2.43;;
3924;SDS011;1977;52.274;10.518;2023-07-16T07:55:43;2.73;;;2.10;;
3924;SDS011;1977;52.274;10.518;2023-07-16T07:58:10;3.50;;;2.10;;
3924;SDS011;1977;52.274;10.518;2023-07-16T08:00:38;3.77;;;2.40;;
3924;SDS011;1977;52.274;10.518;2023-07-16T08:03:04;2.43;;;2.10;;
3924;SDS011;1977;52.274;10.518;2023-07-16T08:05:33;2.67;;;2.00;;
3924;SDS011;1977;52.274;10.518;2023-07-16T08:08:00;2.57;;;2.20;;
3924;SDS011;1977;52.274;10.518;2023-07-16T08:10:27;1.97;;;1.87;;
3924;SDS011;1977;52.274;10.518;2023-07-16T08:12:54;2.90;;;2.30;;
3924;SDS011;1977;52.274;10.518;2023-07-16T08:15:21;2.30;;;2.20;;
3924;SDS011;1977;52.274;10.518;2023-07-16T08:17:47;2.73;;;2.53;;
3924;SDS011;1977;52.274;10.518;2023-07-16T08:20:14;2.00;;;1.90;;
3924;SDS011;1977;52.274;10.518;2023-07-16T08:22:43;2.37;;;2.17;;
3924;SDS011;1977;52.274;10.518;2023-07-16T08:25:09;2.03;;;1.93;;
3924;SDS011;1977;52.274;10.518;2023-07-16T08:27:36;2.10;;;2.00;;
3924;SDS011;1977;52.274;10.518;2023-07-16T08:30:04;2.30;;;1.80;;
3924;SDS011;1977;52.274;10.518;2023-07-16T08:32:32;2.30;;;2.20;;
3924;SDS011;1977;52.274;10.518;2023-07-16T08:34:59;2.40;;;2.20;;
3924;SDS011;1977;52.274;10.518;2023-07-16T08:37:25;4.73;;;1.90;;
3924;SDS011;1977;52.274;10.518;2023-07-16T08:39:54;2.63;;;2.00;;
3924;SDS011;1977;52.274;10.518;2023-07-16T08:42:21;4.50;;;2.00;;
3924;SDS011;1977;52.274;10.518;2023-07-16T08:44:48;3.27;;;2.87;;
3924;SDS011;1977;52.274;10.518;2023-07-16T08:47:15;2.30;;;2.20;;
3924;SDS011;1977;52.274;10.518;2023-07-16T08:49:43;2.87;;;2.20;;
3924;SDS011;1977;52.274;10.518;2023-07-16T08:52:19;2.20;;;2.10;;
3924;SDS011;1977;52.274;10.518;2023-07-16T08:54:46;2.90;;;2.33;;
3924;SDS011;1977;52.274;10.518;2023-07-16T08:57:14;2.77;;;2.27;;
3924;SDS011;1977;52.274;10.518;2023-07-16T08:59:42;2.93;;;2.00;;
3924;SDS011;1977;52.274;10.518;2023-07-16T09:02:10;2.07;;;1.97;;
3924;SDS011;1977;52.274;10.518;2023-07-16T09:04:38;3.03;;;2.73;;
3924;SDS011;1977;52.274;10.518;2023-07-16T09:07:05;3.67;;;2.73;;
3924;SDS011;1977;52.274;10.518;2023-07-16T09:09:32;2.10;;;2.00;;
3924;SDS011;1977;52.274;10.518;2023-07-16T09:11:59;2.50;;;2.40;;
3924;SDS011;1977;52.274;10.518;2023-07-16T09:14:27;2.60;;;2.40;;
3924;SDS011;1977;52.274;10.518;2023-07-16T09:16:54;2.27;;;2.07;;
3924;SDS011;1977;52.274;10.518;2023-07-16T09:19:21;2.40;;;2.03;;
3924;SDS011;1977;52.274;10.518;2023-07-16T09:21:48;2.20;;;2.07;;
3924;SDS011;1977;52.274;10.518;2023-07-16T09:24:15;2.50;;;2.20;;
3924;SDS011;1977;52.274;10.518;2023-07-16T09:26:49;2.87;;;2.67;;
3924;SDS011;1977;52.274;10.518;2023-07-16T09:29:16;3.13;;;2.77;;
3924;SDS011;1977;52.274;10.518;2023-07-16T09:31:54;2.23;;;2.03;;
3924;SDS011;1977;52.274;10.518;2023-07-16T09:34:21;6.53;;;2.67;;
3924;SDS011;1977;52.274;10.518;2023-07-16T09:36:48;2.57;;;2.07;;
3924;SDS011;1977;52.274;10.518;2023-07-16T09:39:16;3.33;;;2.27;;
3924;SDS011;1977;52.274;10.518;2023-07-16T09:41:44;2.60;;;2.50;;
3924;SDS011;1977;52.274;10.518;2023-07-16T09:44:11;2.47;;;2.27;;
3924;SDS011;1977;52.274;10.518;2023-07-16T09:46:39;2.50;;;2.30;;
3924;SDS011;1977;52.274;10.518;2023-07-16T09:49:07;2.17;;;1.97;;
3924;SDS011;1977;52.274;10.518;2023-07-16T09:51:35;2.87;;;2.67;;
3924;SDS011;1977;52.274;10.518;2023-07-16T09:54:03;2.70;;;2.50;;
3924;SDS011;1977;52.274;10.518;2023-07-16T09:56:32;2.97;;;2.47;;
3924;SDS011;1977;52.274;10.518;2023-07-16T09:59:02;3.50;;;2.53;;
3924;SDS011;1977;52.274;10.518;2023-07-16T10:01:33;5.63;;;2.13;;
3924;SDS011;1977;52.274;10.518;2023-07-16T10:04:11;6.13;;;2.47;;
3924;SDS011;1977;52.274;10.518;2023-07-16T10:06:47;3.17;;;2.60;;
3924;SDS011;1977;52.274;10.518;2023-07-16T10:12:06;1.97;;;1.87;;
3924;SDS011;1977;52.274;10.518;2023-07-16T10:14:43;2.50;;;2.30;;
3924;SDS011;1977;52.274;10.518;2023-07-16T10:17:14;2.97;;;2.27;;
3924;SDS011;1977;52.274;10.518;2023-07-16T10:19:47;2.20;;;2.00;;
3924;SDS011;1977;52.274;10.518;2023-07-16T10:22:17;2.50;;;2.30;;
3924;SDS011;1977;52.274;10.518;2023-07-16T10:24:51;3.17;;;2.20;;
3924;SDS011;1977;52.274;10.518;2023-07-16T10:27:26;3.30;;;2.43;;
3924;SDS011;1977;52.274;10.518;2023-07-16T10:29:54;3.10;;;2.20;;
3924;SDS011;1977;52.274;10.518;2023-07-16T10:32:21;3.20;;;2.37;;
3924;SDS011;1977;52.274;10.518;2023-07-16T10:34:49;2.47;;;2.33;;
3924;SDS011;1977;52.274;10.518;2023-07-16T10:37:16;2.10;;;1.97;;
3924;SDS011;1977;52.274;10.518;2023-07-16T10:39:46;2.30;;;2.20;;
3924;SDS011;1977;52.274;10.518;2023-07-16T10:42:15;3.00;;;2.80;;
3924;SDS011;1977;52.274;10.518;2023-07-16T10:44:42;2.90;;;2.37;;
3924;SDS011;1977;52.274;10.518;2023-07-16T10:47:09;3.33;;;3.07;;
3924;SDS011;1977;52.274;10.518;2023-07-16T10:49:44;2.80;;;2.60;;
3924;SDS011;1977;52.274;10.518;2023-07-16T10:52:12;3.20;;;2.57;;
3924;SDS011;1977;52.274;10.518;2023-07-16T10:54:39;5.97;;;4.53;;
3924;SDS011;1977;52.274;10.518;2023-07-16T10:57:06;4.67;;;3.57;;
3924;SDS011;1977;52.274;10.518;2023-07-16T10:59:33;3.23;;;2.70;;
3924;SDS011;1977;52.274;10.518;2023-07-16T11:02:02;3.73;;;3.43;;
3924;SDS011;1977;52.274;10.518;2023-07-16T11:04:33;3.90;;;2.70;;
3924;SDS011;1977;52.274;10.518;2023-07-16T11:07:03;6.30;;;2.53;;
3924;SDS011;1977;52.274;10.518;2023-07-16T11:09:32;3.90;;;3.10;;
3924;SDS011;1977;52.274;10.518;2023-07-16T11:12:06;2.70;;;2.50;;
3924;SDS011;1977;52.274;10.518;2023-07-16T11:14:33;4.60;;;3.17;;
3924;SDS011;1977;52.274;10.518;2023-07-16T11:17:04;4.00;;;3.70;;
3924;SDS011;1977;52.274;10.518;2023-07-16T11:19:32;6.60;;;3.13;;
3924;SDS011;1977;52.274;10.518;2023-07-16T11:22:00;2.57;;;2.47;;
3924;SDS011;1977;52.274;10.518;2023-07-16T11:24:27;2.77;;;2.57;;
3924;SDS011;1977;52.274;10.518;2023-07-16T11:26:55;3.57;;;3.13;;
3924;SDS011;1977;52.274;10.518;2023-07-16T11:29:23;3.07;;;2.83;;
3924;SDS011;1977;52.274;10.518;2023-07-16T11:31:50;3.20;;;2.90;;
3924;SDS011;1977;52.274;10.518;2023-07-16T11:34:19;5.00;;;2.77;;
3924;SDS011;1977;52.274;10.518;2023-07-16T11:36:46;3.17;;;2.97;;
3924;SDS011;1977;52.274;10.518;2023-07-16T11:39:14;3.00;;;2.53;;
3924;SDS011;1977;52.274;10.518;2023-07-16T11:41:41;3.00;;;2.70;;
3924;SDS011;1977;52.274;10.518;2023-07-16T11:44:09;3.50;;;2.70;;
3924;SDS011;1977;52.274;10.518;2023-07-16T11:46:38;2.47;;;2.27;;
3924;SDS011;1977;52.274;10.518;2023-07-16T11:49:05;5.50;;;3.00;;
3924;SDS011;1977;52.274;10.518;2023-07-16T11:51:31;3.27;;;2.47;;
3924;SDS011;1977;52.274;10.518;2023-07-16T11:53:58;4.23;;;2.13;;
3924;SDS011;1977;52.274;10.518;2023-07-16T11:56:25;5.60;;;2.50;;
3924;SDS011;1977;52.274;10.518;2023-07-16T11:58:51;5.70;;;3.17;;
3924;SDS011;1977;52.274;10.518;2023-07-16T12:01:19;3.30;;;2.80;;
3924;SDS011;1977;52.274;10.518;2023-07-16T12:03:46;3.20;;;2.60;;
3924;SDS011;1977;52.274;10.518;2023-07-16T12:06:13;3.07;;;2.87;;
3924;SDS011;1977;52.274;10.518;2023-07-16T12:08:40;5.00;;;3.23;;
3924;SDS011;1977;52.274;10.518;2023-07-16T12:11:06;6.83;;;3.13;;
3924;SDS011;1977;52.274;10.518;2023-07-16T12:13:33;5.50;;;2.37;;
3924;SDS011;1977;52.274;10.518;2023-07-16T12:16:01;4.63;;;3.30;;
3924;SDS011;1977;52.274;10.518;2023-07-16T12:18:29;3.00;;;2.80;;
3924;SDS011;1977;52.274;10.518;2023-07-16T12:20:56;3.17;;;2.90;;
3924;SDS011;1977;52.274;10.518;2023-07-16T12:23:23;3.10;;;2.90;;
3924;SDS011;1977;52.274;10.518;2023-07-16T12:25:50;3.07;;;2.87;;
3924;SDS011;1977;52.274;10.518;2023-07-16T12:28:16;2.93;;;2.73;;
3924;SDS011;1977;52.274;10.518;2023-07-16T12:30:43;3.63;;;2.70;;
3924;SDS011;1977;52.274;10.518;2023-07-16T12:33:10;3.00;;;2.73;;
3924;SDS011;1977;52.274;10.518;2023-07-16T12:35:38;3.57;;;3.27;;
3924;SDS011;1977;52.274;10.518;2023-07-16T12:38:04;3.13;;;2.90;;
3924;SDS011;1977;52.274;10.518;2023-07-16T12:40:31;3.23;;;2.60;;
3924;SDS011;1977;52.274;10.518;2023-07-16T12:43:04;3.60;;;3.30;;
3924;SDS011;1977;52.274;10.518;2023-07-16T12:45:31;3.03;;;2.83;;
3924;SDS011;1977;52.274;10.518;2023-07-16T12:47:58;3.33;;;3.10;;
3924;SDS011;1977;52.274;10.518;2023-07-16T12:50:24;4.60;;;3.40;;
3924;SDS011;1977;52.274;10.518;2023-07-16T12:52:55;5.67;;;2.93;;
3924;SDS011;1977;52.274;10.518;2023-07-16T12:55:22;2.60;;;2.40;;
3924;SDS011;1977;52.274;10.518;2023-07-16T12:57:49;3.00;;;2.70;;
3924;SDS011;1977;52.274;10.518;2023-07-16T13:00:16;3.60;;;3.30;;
3924;SDS011;1977;52.274;10.518;2023-07-16T13:02:42;3.77;;;2.90;;
3924;SDS011;1977;52.274;10.518;2023-07-16T13:05:09;2.80;;;2.70;;
3924;SDS011;1977;52.274;10.518;2023-07-16T13:07:36;3.50;;;3.23;;
3924;SDS011;1977;52.274;10.518;2023-07-16T13:10:05;3.27;;;3.00;;
3924;SDS011;1977;52.274;10.518;2023-07-16T13:12:32;3.30;;;3.10;;
3924;SDS011;1977;52.274;10.518;2023-07-16T13:14:59;3.50;;;3.30;;
3924;SDS011;1977;52.274;10.518;2023-07-16T13:17:26;3.43;;;3.13;;
3924;SDS011;1977;52.274;10.518;2023-07-16T13:19:52;3.40;;;3.20;;
3924;SDS011;1977;52.274;10.518;2023-07-16T13:22:19;3.20;;;3.00;;
3924;SDS011;1977;52.274;10.518;2023-07-16T13:24:46;2.90;;;2.70;;
3924;SDS011;1977;52.274;10.518;2023-07-16T13:27:20;3.80;;;3.07;;
3924;SDS011;1977;52.274;10.518;2023-07-16T13:29:47;3.10;;;2.90;;
3924;SDS011;1977;52.274;10.518;2023-07-16T13:32:14;3.40;;;3.10;;
3924;SDS011;1977;52.274;10.518;2023-07-16T13:34:41;3.27;;;3.07;;
3924;SDS011;1977;52.274;10.518;2023-07-16T13:37:08;4.60;;;3.10;;
3924;SDS011;1977;52.274;10.518;2023-07-16T13:39:35;2.77;;;2.57;;
3924;SDS011;1977;52.274;10.518;2023-07-16T13:42:02;6.10;;;3.67;;
3924;SDS011;1977;52.274;10.518;2023-07-16T13:44:32;3.47;;;3.20;;
3924;SDS011;1977;52.274;10.518;2023-07-16T13:46:59;3.50;;;3.20;;
3924;SDS011;1977;52.274;10.518;2023-07-16T13:49:26;2.80;;;2.70;;
3924;SDS011;1977;52.274;10.518;2023-07-16T13:51:52;3.40;;;3.10;;
3924;SDS011;1977;52.274;10.518;2023-07-16T13:54:19;3.63;;;3.30;;
3924;SDS011;1977;52.274;10.518;2023-07-16T13:56:46;2.90;;;2.70;;
3924;SDS011;1977;52.274;10.518;2023-07-16T13:59:13;3.63;;;3.33;;
3924;SDS011;1977;52.274;10.518;2023-07-16T14:01:41;4.07;;;3.60;;
3924;SDS011;1977;52.274;10.518;2023-07-16T14:04:08;4.07;;;3.67;;
3924;SDS011;1977;52.274;10.518;2023-07-16T14:06:34;2.87;;;2.77;;
3924;SDS011;1977;52.274;10.518;2023-07-16T14:09:01;3.50;;;3.20;;
3924;SDS011;1977;52.274;10.518;2023-07-16T14:11:29;3.40;;;3.20;;
3924;SDS011;1977;52.274;10.518;2023-07-16T14:13:56;2.97;;;2.77;;
3924;SDS011;1977;52.274;10.518;2023-07-16T14:16:23;3.33;;;3.13;;
3924;SDS011;1977;52.274;10.518;2023-07-16T14:18:52;2.97;;;2.87;;
3924;SDS011;1977;52.274;10.518;2023-07-16T14:21:19;3.00;;;2.80;;
3924;SDS011;1977;52.274;10.518;2023-07-16T14:23:46;3.40;;;3.13;;
3924;SDS011;1977;52.274;10.518;2023-07-16T14:26:13;3.10;;;2.67;;
3924;SDS011;1977;52.274;10.518;2023-07-16T14:28:39;2.83;;;2.63;;
3924;SDS011;1977;52.274;10.518;2023-07-16T14:31:06;3.43;;;3.23;;
3924;SDS011;1977;52.274;10.518;2023-07-16T14:33:33;3.27;;;3.07;;
3924;SDS011;1977;52.274;10.518;2023-07-16T14:36:01;3.40;;;3.20;;
3924;SDS011;1977;52.274;10.518;2023-07-16T14:38:28;3.73;;;2.53;;
3924;SDS011;1977;52.274;10.518;2023-07-16T14:40:54;3.50;;;3.20;;
3924;SDS011;1977;52.274;10.518;2023-07-16T14:43:21;3.40;;;3.20;;
3924;SDS011;1977;52.274;10.518;2023-07-16T14:45:48;3.13;;;2.93;;
3924;SDS011;1977;52.274;10.518;2023-07-16T14:48:15;3.43;;;2.80;;
3924;SDS011;1977;52.274;10.518;2023-07-16T14:50:42;3.37;;;3.17;;
3924;SDS011;1977;52.274;10.518;2023-07-16T14:53:10;3.03;;;2.83;;
3924;SDS011;1977;52.274;10.518;2023-07-16T14:55:39;3.40;;;3.13;;
3924;SDS011;1977;52.274;10.518;2023-07-16T14:58:06;3.40;;;3.20;;
3924;SDS011;1977;52.274;10.518;2023-07-16T15:00:33;4.57;;;3.47;;
3924;SDS011;1977;52.274;10.518;2023-07-16T15:03:00;3.70;;;3.07;;
3924;SDS011;1977;52.274;10.518;2023-07-16T15:05:27;3.10;;;2.90;;